createdAt,value
2018-07-23T00:01:26.581Z,99.90
2018-07-23T00:06:23.111Z,99.90
2018-07-23T00:08:51.520Z,99.90
2018-07-23T00:11:19.956Z,99.90
2018-07-23T00:13:48.361Z,99.90
2018-07-23T00:16:17.101Z,99.90
2018-07-23T00:18:45.627Z,99.90
2018-07-23T00:21:14.021Z,99.90
2018-07-23T00:23:42.609Z,99.90
2018-07-23T00:26:11.008Z,99.90
2018-07-23T00:28:39.599Z,99.90
2018-07-23T00:31:08.186Z,99.90
2018-07-23T00:33:36.635Z,99.90
2018-07-23T00:36:05.094Z,99.90
2018-07-23T00:38:33.501Z,99.90
2018-07-23T00:41:01.917Z,99.90
2018-07-23T00:43:30.507Z,99.90
2018-07-23T00:45:58.900Z,99.90
2018-07-23T00:48:27.390Z,99.90
2018-07-23T00:50:55.956Z,99.90
2018-07-23T00:53:24.367Z,99.90
2018-07-23T00:55:52.944Z,99.90
2018-07-23T00:58:21.400Z,99.90
2018-07-23T01:03:17.887Z,99.90
2018-07-23T01:05:46.397Z,99.90
2018-07-23T01:08:14.831Z,99.90
2018-07-23T01:10:43.255Z,99.90
2018-07-23T01:13:11.631Z,99.90
2018-07-23T01:15:40.049Z,99.90
2018-07-23T01:18:08.495Z,99.90
2018-07-23T01:20:36.916Z,99.90
2018-07-23T01:23:05.663Z,99.90
2018-07-23T01:25:34.188Z,99.90
2018-07-23T01:30:30.720Z,99.90
2018-07-23T01:32:59.108Z,99.90
2018-07-23T01:35:27.534Z,99.90
2018-07-23T01:37:55.926Z,99.90
2018-07-23T01:40:24.730Z,99.90
2018-07-23T01:42:53.129Z,99.90
2018-07-23T01:45:21.551Z,99.90
2018-07-23T01:47:50.017Z,99.90
2018-07-23T01:50:18.459Z,99.90
2018-07-23T01:52:46.868Z,99.90
2018-07-23T01:55:15.287Z,99.90
2018-07-23T01:57:43.823Z,99.90
2018-07-23T02:00:12.470Z,99.90
2018-07-23T02:02:40.864Z,99.90
2018-07-23T02:05:09.263Z,99.90
2018-07-23T02:07:37.675Z,99.90
2018-07-23T02:10:06.150Z,99.90
2018-07-23T02:12:34.767Z,99.90
2018-07-23T02:15:03.238Z,99.90
2018-07-23T02:17:31.636Z,99.90
2018-07-23T02:20:00.093Z,99.90
2018-07-23T02:22:28.503Z,99.90
2018-07-23T02:24:56.924Z,99.90
2018-07-23T02:27:25.383Z,99.90
2018-07-23T02:29:53.773Z,99.90
2018-07-23T02:32:22.208Z,99.90
2018-07-23T02:34:50.633Z,99.90
2018-07-23T02:37:19.272Z,99.90
2018-07-23T02:39:47.704Z,99.90
2018-07-23T02:42:16.122Z,99.90
2018-07-23T02:44:44.911Z,99.90
2018-07-23T02:47:13.494Z,99.90
2018-07-23T02:49:41.879Z,99.90
2018-07-23T02:52:10.365Z,99.90
2018-07-23T02:54:38.798Z,99.90
2018-07-23T02:57:07.384Z,99.90
2018-07-23T02:59:35.833Z,99.90
2018-07-23T03:02:04.269Z,99.90
2018-07-23T03:04:32.677Z,99.90
2018-07-23T03:07:01.101Z,99.90
2018-07-23T03:09:29.528Z,99.90
2018-07-23T03:11:57.962Z,99.90
2018-07-23T03:14:26.356Z,99.90
2018-07-23T03:16:54.749Z,99.90
2018-07-23T03:19:23.156Z,99.90
2018-07-23T03:24:19.720Z,99.90
2018-07-23T03:26:48.106Z,99.90
2018-07-23T03:29:16.528Z,99.90
2018-07-23T03:31:44.921Z,99.90
2018-07-23T03:34:13.350Z,99.90
2018-07-23T03:36:41.810Z,99.90
2018-07-23T03:39:11.456Z,99.90
2018-07-23T03:41:39.875Z,99.90
2018-07-23T03:44:08.515Z,99.90
2018-07-23T03:46:36.928Z,99.90
2018-07-23T03:49:05.545Z,99.90
2018-07-23T03:51:33.994Z,99.90
2018-07-23T03:54:02.397Z,99.90
2018-07-23T03:56:31.045Z,99.90
2018-07-23T03:58:59.473Z,99.90
2018-07-23T04:01:28.004Z,99.90
2018-07-23T04:03:56.535Z,99.90
2018-07-23T04:06:24.953Z,99.90
2018-07-23T04:08:53.356Z,99.90
2018-07-23T04:11:21.785Z,99.90
2018-07-23T04:13:50.296Z,99.90
2018-07-23T04:16:18.715Z,99.90
2018-07-23T04:18:47.117Z,99.90
2018-07-23T04:21:15.516Z,99.90
2018-07-23T04:23:43.908Z,99.90
2018-07-23T04:26:12.369Z,99.90
2018-07-23T04:28:40.804Z,99.90
2018-07-23T04:31:09.219Z,99.90
2018-07-23T04:33:37.655Z,99.90
2018-07-23T04:38:34.268Z,99.90
2018-07-23T04:41:02.685Z,99.90
2018-07-23T04:43:31.115Z,99.90
2018-07-23T04:45:59.571Z,99.90
2018-07-23T04:48:27.968Z,99.90
2018-07-23T04:50:56.429Z,99.90
2018-07-23T04:53:24.807Z,99.90
2018-07-23T04:55:53.208Z,99.90
2018-07-23T04:58:21.679Z,99.90
2018-07-23T05:00:50.100Z,99.90
2018-07-23T05:03:18.511Z,99.90
2018-07-23T05:05:47.020Z,99.90
2018-07-23T05:08:15.416Z,99.90
2018-07-23T05:10:43.824Z,99.90
2018-07-23T05:13:12.420Z,99.90
2018-07-23T05:15:41.131Z,99.90
2018-07-23T05:18:09.623Z,99.90
2018-07-23T05:20:39.280Z,99.90
2018-07-23T05:23:07.716Z,99.90
2018-07-23T05:25:36.109Z,99.90
2018-07-23T05:28:04.552Z,99.90
2018-07-23T05:30:33.072Z,99.90
2018-07-23T05:33:01.489Z,99.90
2018-07-23T05:35:29.913Z,99.90
2018-07-23T05:37:58.504Z,99.90
2018-07-23T05:40:27.113Z,99.90
2018-07-23T05:42:55.516Z,99.90
2018-07-23T05:45:23.914Z,99.90
2018-07-23T05:47:52.399Z,99.90
2018-07-23T05:50:20.796Z,99.90
2018-07-23T05:52:49.201Z,99.90
2018-07-23T05:55:17.592Z,99.90
2018-07-23T06:00:14.510Z,99.90
2018-07-23T06:02:42.904Z,99.90
2018-07-23T06:05:11.337Z,99.90
2018-07-23T06:07:39.732Z,99.90
2018-07-23T06:10:08.293Z,99.90
2018-07-23T06:12:36.731Z,99.90
2018-07-23T06:15:06.580Z,99.90
2018-07-23T06:17:35.221Z,99.90
2018-07-23T06:20:03.811Z,99.90
2018-07-23T06:22:32.240Z,99.90
2018-07-23T06:25:00.680Z,99.90
2018-07-23T06:27:29.105Z,99.90
2018-07-23T06:29:57.618Z,99.90
2018-07-23T06:32:25.989Z,99.90
2018-07-23T06:34:54.419Z,99.90
2018-07-23T06:37:23.076Z,99.90
2018-07-23T06:39:51.460Z,99.90
2018-07-23T06:42:19.835Z,99.90
2018-07-23T06:44:48.438Z,99.90
2018-07-23T06:47:16.838Z,99.90
2018-07-23T06:49:45.228Z,99.90
2018-07-23T06:52:13.665Z,99.90
2018-07-23T06:54:42.088Z,99.90
2018-07-23T06:57:10.484Z,99.90
2018-07-23T06:59:38.919Z,99.90
2018-07-23T07:02:07.545Z,99.90
2018-07-23T07:04:36.037Z,99.90
2018-07-23T07:07:04.785Z,99.90
2018-07-23T07:09:33.188Z,99.90
2018-07-23T07:12:01.977Z,99.90
2018-07-23T07:14:30.421Z,99.90
2018-07-23T07:16:58.832Z,99.90
2018-07-23T07:19:27.449Z,99.90
2018-07-23T07:21:55.860Z,99.90
2018-07-23T07:24:24.290Z,99.90
2018-07-23T07:26:52.813Z,99.90
2018-07-23T07:29:21.360Z,99.90
2018-07-23T07:31:49.788Z,99.90
2018-07-23T07:34:18.205Z,99.90
2018-07-23T07:36:46.666Z,99.90
2018-07-23T07:39:15.159Z,99.90
2018-07-23T07:41:43.584Z,99.90
2018-07-23T07:44:12.012Z,99.90
2018-07-23T07:46:41.218Z,99.90
2018-07-23T07:49:10.011Z,99.90
2018-07-23T07:51:38.437Z,99.90
2018-07-23T07:54:06.860Z,99.90
2018-07-23T07:56:35.326Z,99.90
2018-07-23T07:59:03.811Z,99.90
2018-07-23T08:01:32.216Z,99.90
2018-07-23T08:04:00.886Z,99.90
2018-07-23T08:06:29.297Z,99.90
2018-07-23T08:08:57.733Z,99.90
2018-07-23T08:11:26.173Z,99.90
2018-07-23T08:13:54.576Z,99.90
2018-07-23T08:16:23.023Z,99.90
2018-07-23T08:18:51.467Z,99.90
2018-07-23T08:21:19.905Z,99.90
2018-07-23T08:23:48.340Z,99.90
2018-07-23T08:26:16.773Z,99.90
2018-07-23T08:28:45.454Z,99.90
2018-07-23T08:31:13.885Z,99.90
2018-07-23T08:33:42.317Z,99.90
2018-07-23T08:36:10.953Z,99.90
2018-07-23T08:38:39.461Z,99.90
2018-07-23T08:41:07.898Z,99.90
2018-07-23T08:43:36.328Z,99.90
2018-07-23T08:46:04.788Z,99.90
2018-07-23T08:48:33.334Z,99.90
2018-07-23T08:51:01.764Z,99.90
2018-07-23T08:53:30.180Z,99.90
2018-07-23T08:55:58.598Z,99.90
2018-07-23T09:00:55.116Z,99.90
2018-07-23T09:03:23.526Z,99.90
2018-07-23T09:05:51.957Z,99.90
2018-07-23T09:08:20.456Z,99.90
2018-07-23T09:10:49.010Z,99.90
2018-07-23T09:13:17.645Z,99.90
2018-07-23T09:15:46.069Z,99.90
2018-07-23T09:18:14.682Z,99.90
2018-07-23T09:20:43.124Z,99.90
2018-07-23T09:23:11.572Z,99.90
2018-07-23T09:25:46.602Z,99.90
2018-07-23T09:28:16.272Z,99.90
2018-07-23T09:30:51.945Z,99.90
2018-07-23T09:33:21.797Z,99.90
2018-07-23T09:35:51.060Z,99.90
2018-07-23T09:38:20.142Z,99.90
2018-07-23T09:40:48.558Z,99.90
2018-07-23T09:45:45.233Z,97.90
2018-07-23T09:48:13.657Z,96.70
2018-07-23T09:50:42.240Z,96.60
2018-07-23T09:53:10.663Z,96.80
2018-07-23T09:55:39.112Z,97.00
2018-07-23T09:58:07.538Z,96.30
2018-07-23T10:00:41.524Z,96.40
2018-07-23T10:03:10.020Z,96.50
2018-07-23T10:05:38.368Z,94.00
2018-07-23T10:10:35.076Z,95.40
2018-07-23T10:13:03.749Z,99.20
2018-07-23T10:15:32.242Z,98.20
2018-07-23T10:18:00.800Z,96.00
2018-07-23T10:20:29.229Z,93.90
2018-07-23T10:22:57.672Z,92.90
2018-07-23T10:25:26.125Z,93.80
2018-07-23T10:27:54.552Z,96.60
2018-07-23T10:30:22.964Z,98.30
2018-07-23T10:32:51.401Z,97.60
2018-07-23T10:35:19.809Z,97.90
2018-07-23T10:37:48.214Z,97.10
2018-07-23T10:40:16.636Z,96.60
2018-07-23T10:42:45.046Z,95.40
2018-07-23T10:45:13.484Z,94.40
2018-07-23T10:47:42.001Z,94.00
2018-07-23T10:50:10.437Z,94.20
2018-07-23T10:52:38.861Z,93.50
2018-07-23T10:55:07.303Z,92.50
2018-07-23T10:57:35.841Z,90.70
2018-07-23T11:00:04.901Z,91.30
2018-07-23T11:02:33.312Z,94.00
2018-07-23T11:05:01.760Z,95.20
2018-07-23T11:07:30.226Z,94.40
2018-07-23T11:09:58.746Z,92.20
2018-07-23T11:12:27.120Z,91.20
2018-07-23T11:14:55.530Z,90.00
2018-07-23T11:17:24.301Z,91.20
2018-07-23T11:19:52.713Z,91.00
2018-07-23T11:22:21.175Z,90.30
2018-07-23T11:24:49.627Z,89.80
2018-07-23T11:27:17.984Z,89.80
2018-07-23T11:29:46.387Z,91.10
2018-07-23T11:32:15.075Z,93.60
2018-07-23T11:34:43.720Z,93.50
2018-07-23T11:37:12.156Z,91.60
2018-07-23T11:39:40.572Z,89.30
2018-07-23T11:42:09.112Z,89.20
2018-07-23T11:44:37.541Z,90.20
2018-07-23T11:47:06.224Z,91.20
2018-07-23T11:49:34.729Z,92.40
2018-07-23T11:52:03.280Z,92.90
2018-07-23T11:54:31.682Z,91.60
2018-07-23T11:57:00.108Z,90.70
2018-07-23T11:59:28.749Z,89.30
2018-07-23T12:01:57.214Z,87.50
2018-07-23T12:04:25.753Z,89.30
2018-07-23T12:06:54.301Z,84.70
2018-07-23T12:09:22.756Z,83.20
2018-07-23T12:11:51.213Z,82.70
2018-07-23T12:14:19.660Z,84.40
2018-07-23T12:16:48.097Z,82.30
2018-07-23T12:19:16.533Z,84.70
2018-07-23T12:21:44.946Z,87.60
2018-07-23T12:24:13.367Z,87.20
2018-07-23T12:31:38.094Z,82.90
2018-07-23T12:34:06.586Z,81.50
2018-07-23T12:36:35.000Z,80.90
2018-07-23T12:39:04.192Z,83.20
2018-07-23T12:41:32.645Z,81.80
2018-07-23T12:44:01.064Z,82.30
2018-07-23T12:46:29.472Z,85.40
2018-07-23T12:48:57.894Z,85.00
2018-07-23T12:51:26.312Z,85.40
2018-07-23T12:53:54.743Z,85.40
2018-07-23T12:56:23.156Z,87.50
2018-07-23T12:58:51.659Z,87.70
2018-07-23T13:01:20.116Z,90.30
2018-07-23T13:03:48.544Z,89.30
2018-07-23T13:06:16.973Z,85.10
2018-07-23T13:08:45.552Z,85.80
2018-07-23T13:11:13.982Z,89.00
2018-07-23T13:13:42.515Z,89.60
2018-07-23T13:16:11.124Z,89.90
2018-07-23T13:18:40.639Z,88.30
2018-07-23T13:21:09.293Z,89.30
2018-07-23T13:23:38.086Z,87.60
2018-07-23T13:26:06.674Z,89.30
2018-07-23T13:28:35.287Z,90.20
2018-07-23T13:33:31.837Z,86.80
2018-07-23T13:36:00.508Z,89.10
2018-07-23T13:38:28.909Z,87.40
2018-07-23T13:40:57.328Z,88.60
2018-07-23T13:43:25.748Z,87.50
2018-07-23T13:45:54.135Z,86.60
2018-07-23T13:50:50.675Z,87.00
2018-07-23T13:53:19.074Z,88.40
2018-07-23T13:55:47.609Z,88.20
2018-07-23T13:58:16.029Z,88.40
2018-07-23T14:00:44.452Z,89.20
2018-07-23T14:03:13.085Z,87.30
2018-07-23T14:05:41.506Z,87.50
2018-07-23T14:08:09.925Z,87.70
2018-07-23T14:10:38.621Z,87.20
2018-07-23T14:13:07.014Z,87.50
2018-07-23T14:18:03.852Z,88.30
2018-07-23T14:20:32.264Z,88.70
2018-07-23T14:23:00.689Z,88.90
2018-07-23T14:25:29.138Z,89.20
2018-07-23T14:27:57.610Z,87.10
2018-07-23T14:30:26.039Z,88.00
2018-07-23T14:32:54.619Z,87.30
2018-07-23T14:35:23.032Z,87.60
2018-07-23T14:37:51.443Z,87.70
2018-07-23T14:40:20.078Z,87.80
2018-07-23T14:42:48.478Z,87.40
2018-07-23T14:45:16.886Z,87.80
2018-07-23T14:47:45.409Z,85.30
2018-07-23T14:50:13.944Z,87.60
2018-07-23T14:52:42.437Z,86.70
2018-07-23T14:55:11.172Z,86.10
2018-07-23T14:57:39.612Z,86.60
2018-07-23T15:00:07.987Z,89.00
2018-07-23T15:02:36.662Z,89.00
2018-07-23T15:05:05.480Z,89.00
2018-07-23T15:07:33.885Z,89.00
2018-07-23T15:10:02.357Z,88.20
2018-07-23T15:17:27.516Z,87.50
2018-07-23T15:19:55.953Z,87.70
2018-07-23T15:22:24.359Z,87.70
2018-07-23T15:24:52.821Z,87.30
2018-07-23T15:27:21.279Z,87.60
2018-07-23T15:29:49.642Z,89.00
2018-07-23T15:32:18.104Z,88.10
2018-07-23T15:34:46.508Z,87.00
2018-07-23T15:37:14.933Z,86.70
2018-07-23T15:44:40.126Z,85.70
2018-07-23T15:49:36.476Z,85.30
2018-07-23T15:52:05.186Z,85.40
2018-07-23T15:54:33.585Z,86.60
2018-07-23T15:57:02.100Z,87.40
2018-07-23T15:59:30.527Z,87.50
2018-07-23T16:01:58.966Z,87.90
2018-07-23T16:04:27.386Z,88.90
2018-07-23T16:06:55.796Z,88.30
2018-07-23T16:09:24.196Z,88.00
2018-07-23T16:11:52.654Z,87.90
2018-07-23T16:14:21.064Z,87.60
2018-07-23T16:16:49.496Z,87.50
2018-07-23T16:21:46.106Z,86.40
2018-07-23T16:24:14.627Z,86.80
2018-07-23T16:26:43.200Z,87.20
2018-07-23T16:31:39.744Z,87.40
2018-07-23T16:34:08.164Z,88.00
2018-07-23T16:36:36.580Z,87.90
2018-07-23T16:39:08.180Z,88.30
2018-07-23T16:41:36.630Z,88.50
2018-07-23T16:44:05.589Z,88.10
2018-07-23T16:46:34.023Z,87.60
2018-07-23T16:49:02.502Z,87.60
2018-07-23T16:51:30.941Z,87.20
2018-07-23T16:53:59.339Z,86.60
2018-07-23T16:56:27.798Z,87.70
2018-07-23T16:58:56.204Z,88.40
2018-07-23T17:03:52.745Z,89.60
2018-07-23T17:06:21.281Z,88.50
2018-07-23T17:08:49.740Z,89.40
2018-07-23T17:11:18.248Z,88.70
2018-07-23T17:13:46.725Z,88.30
2018-07-23T17:16:15.113Z,89.80
2018-07-23T17:18:43.537Z,90.10
2018-07-23T17:21:11.953Z,90.00
2018-07-23T17:23:40.477Z,90.00
2018-07-23T17:26:08.915Z,89.70
2018-07-23T17:28:37.335Z,90.50
2018-07-23T17:31:05.904Z,91.60
2018-07-23T17:33:34.368Z,90.50
2018-07-23T17:36:02.821Z,90.40
2018-07-23T17:38:31.367Z,90.50
2018-07-23T17:40:59.767Z,91.40
2018-07-23T17:45:56.476Z,90.40
2018-07-23T17:48:25.054Z,90.00
2018-07-23T17:50:53.464Z,90.90
2018-07-23T17:53:21.996Z,90.40
2018-07-23T17:55:50.436Z,90.40
2018-07-23T17:58:18.953Z,91.50
2018-07-23T18:00:47.513Z,90.70
2018-07-23T18:03:16.097Z,90.40
2018-07-23T18:05:44.522Z,91.70
2018-07-23T18:08:12.928Z,91.80
2018-07-23T18:10:41.338Z,92.00
2018-07-23T18:13:09.816Z,92.50
2018-07-23T18:18:06.520Z,91.20
2018-07-23T18:20:35.128Z,92.60
2018-07-23T18:23:03.545Z,92.50
2018-07-23T18:25:31.944Z,91.50
2018-07-23T18:28:00.451Z,91.30
2018-07-23T18:30:28.907Z,91.40
2018-07-23T18:32:57.340Z,91.40
2018-07-23T18:35:25.793Z,91.80
2018-07-23T18:37:54.343Z,92.00
2018-07-23T18:40:22.832Z,92.00
2018-07-23T18:42:51.304Z,92.30
2018-07-23T18:45:19.990Z,92.50
2018-07-23T18:47:48.812Z,92.40
2018-07-23T18:50:17.201Z,93.80
2018-07-23T18:52:45.608Z,94.10
2018-07-23T18:55:14.112Z,93.60
2018-07-23T18:57:42.585Z,93.40
2018-07-23T19:00:11.160Z,93.60
2018-07-23T19:02:39.620Z,93.70
2018-07-23T19:05:08.131Z,94.50
2018-07-23T19:07:36.580Z,94.40
2018-07-23T19:10:07.825Z,94.80
2018-07-23T19:15:06.344Z,95.70
2018-07-23T19:17:35.419Z,95.90
2018-07-23T19:20:04.859Z,96.60
2018-07-23T19:22:34.242Z,97.50
2018-07-23T19:25:02.723Z,97.30
2018-07-23T19:27:31.174Z,97.80
2018-07-23T19:30:00.000Z,99.40
2018-07-23T19:32:29.809Z,99.80
2018-07-23T19:34:58.469Z,99.90
2018-07-23T19:37:26.940Z,99.90
2018-07-23T19:39:55.411Z,99.90
2018-07-23T19:42:23.925Z,99.90
2018-07-23T19:44:52.979Z,99.90
2018-07-23T19:49:49.731Z,99.90
2018-07-23T19:52:18.369Z,99.90
2018-07-23T19:54:46.952Z,99.90
2018-07-23T19:57:15.387Z,99.90
2018-07-23T19:59:43.948Z,99.90
2018-07-23T20:02:12.479Z,99.90
2018-07-23T20:04:40.887Z,99.90
2018-07-23T20:07:09.442Z,99.90
2018-07-23T20:09:38.129Z,99.90
2018-07-23T20:12:06.582Z,99.90
2018-07-23T20:14:34.996Z,99.90
2018-07-23T20:17:03.619Z,99.90
2018-07-23T20:19:32.048Z,99.90
2018-07-23T20:22:00.461Z,99.90
2018-07-23T20:24:28.974Z,99.90
2018-07-23T20:26:57.628Z,99.90
2018-07-23T20:29:26.119Z,99.90
2018-07-23T20:31:54.568Z,99.90
2018-07-23T20:34:23.114Z,99.90
2018-07-23T20:36:51.653Z,99.90
2018-07-23T20:39:20.041Z,99.90
2018-07-23T20:41:48.530Z,99.90
2018-07-23T20:44:23.642Z,99.90
2018-07-23T20:46:52.127Z,99.90
2018-07-23T20:49:20.680Z,99.90
2018-07-23T20:51:50.089Z,99.90
2018-07-23T20:54:18.629Z,99.90
2018-07-23T20:56:47.170Z,99.90
2018-07-23T20:59:15.825Z,99.90
2018-07-23T21:01:44.341Z,99.90
2018-07-23T21:04:12.785Z,99.90
2018-07-23T21:06:41.256Z,99.90
2018-07-23T21:09:09.713Z,99.90
2018-07-23T21:11:38.210Z,99.90
2018-07-23T21:14:06.665Z,99.90
2018-07-23T21:16:35.112Z,99.90
2018-07-23T21:19:03.537Z,99.90
2018-07-23T21:21:32.095Z,99.90
2018-07-23T21:24:00.637Z,99.90
2018-07-23T21:26:29.048Z,99.90
2018-07-23T21:28:57.596Z,99.90
2018-07-23T21:31:26.016Z,99.90
2018-07-23T21:33:54.473Z,99.90
2018-07-23T21:36:23.040Z,99.90
2018-07-23T21:38:51.533Z,99.90
2018-07-23T21:41:20.144Z,99.90
2018-07-23T21:43:48.560Z,99.90
2018-07-23T21:46:16.972Z,99.90
2018-07-23T21:48:45.463Z,99.90
2018-07-23T21:51:13.889Z,99.90
2018-07-23T21:53:42.537Z,99.90
2018-07-23T21:56:11.045Z,99.90
2018-07-23T21:58:39.474Z,99.90
2018-07-23T22:01:07.994Z,99.90
2018-07-23T22:03:36.507Z,99.90
2018-07-23T22:06:04.983Z,99.90
2018-07-23T22:08:33.411Z,99.90
2018-07-23T22:11:01.824Z,99.90
2018-07-23T22:13:30.276Z,99.90
2018-07-23T22:15:58.720Z,99.90
2018-07-23T22:18:27.485Z,99.90
2018-07-23T22:20:55.941Z,99.90
2018-07-23T22:25:52.633Z,99.90
2018-07-23T22:28:21.082Z,99.90
2018-07-23T22:33:17.698Z,99.90
2018-07-23T22:35:46.162Z,99.90
2018-07-23T22:38:14.658Z,99.90
2018-07-23T22:40:43.109Z,99.90
2018-07-23T22:43:11.483Z,99.90
2018-07-23T22:45:39.928Z,99.90
2018-07-23T22:48:08.324Z,99.90
2018-07-23T22:50:36.744Z,99.90
2018-07-23T22:53:05.186Z,99.90
2018-07-23T22:55:33.704Z,99.90
2018-07-23T22:58:02.157Z,99.90
2018-07-23T23:00:30.572Z,99.90
2018-07-23T23:02:59.120Z,99.90
2018-07-23T23:05:27.675Z,99.90
2018-07-23T23:07:56.338Z,99.90
2018-07-23T23:10:24.747Z,99.90
2018-07-23T23:12:53.264Z,99.90
2018-07-23T23:15:21.676Z,99.90
2018-07-23T23:17:50.085Z,99.90
2018-07-23T23:20:18.500Z,99.90
2018-07-23T23:22:46.898Z,99.90
2018-07-23T23:25:15.312Z,99.90
2018-07-23T23:27:43.729Z,99.90
2018-07-23T23:30:12.138Z,99.90
2018-07-23T23:32:40.736Z,99.90
2018-07-23T23:37:37.273Z,99.90
2018-07-23T23:40:05.949Z,99.90
2018-07-23T23:42:34.372Z,99.90
2018-07-23T23:45:02.839Z,99.90
2018-07-23T23:47:31.576Z,99.90
2018-07-23T23:49:59.988Z,99.90
2018-07-23T23:52:28.460Z,99.90
2018-07-23T23:54:56.912Z,99.90
2018-07-23T23:57:25.393Z,99.90
2018-07-23T23:59:53.891Z,99.90
